sensor_id;sensor_type;location;lat;lon;timestamp;pressure;altitude;pressure_sealevel;temperature;humidity
48630;BME280;34426;52.180;4.462;2022-07-23T00:01:45;149638.88;;;14.69;100.00
48630;BME280;34426;52.180;4.462;2022-07-23T00:04:15;149630.13;;;14.65;100.00
48630;BME280;34426;52.180;4.462;2022-07-23T00:06:42;149626.38;;;14.64;100.00
48630;BME280;34426;52.180;4.462;2022-07-23T00:09:10;149630.13;;;14.65;100.00
48630;BME280;34426;52.180;4.462;2022-07-23T00:11:37;149626.38;;;14.64;100.00
48630;BME280;34426;52.180;4.462;2022-07-23T00:14:06;149621.38;;;14.62;100.00
48630;BME280;34426;52.180;4.462;2022-07-23T00:16:32;149626.38;;;14.64;100.00
48630;BME280;34426;52.180;4.462;2022-07-23T00:19:00;149620.13;;;14.61;100.00
48630;BME280;34426;52.180;4.462;2022-07-23T00:21:30;149622.63;;;14.62;100.00
48630;BME280;34426;52.180;4.462;2022-07-23T00:23:57;149606.34;;;14.56;100.00
48630;BME280;34426;52.180;4.462;2022-07-23T00:26:24;149598.84;;;14.53;100.00
48630;BME280;34426;52.180;4.462;2022-07-23T00:28:52;149586.34;;;14.48;100.00
48630;BME280;34426;52.180;4.462;2022-07-23T00:31:19;149568.84;;;14.40;100.00
48630;BME280;34426;52.180;4.462;2022-07-23T00:33:47;149561.31;;;14.37;100.00
48630;BME280;34426;52.180;4.462;2022-07-23T00:36:14;149537.56;;;14.27;100.00
48630;BME280;34426;52.180;4.462;2022-07-23T00:38:44;149531.34;;;14.25;100.00
48630;BME280;34426;52.180;4.462;2022-07-23T00:41:11;149526.34;;;14.23;100.00
48630;BME280;34426;52.180;4.462;2022-07-23T00:43:39;149518.81;;;14.20;100.00
48630;BME280;34426;52.180;4.462;2022-07-23T00:46:06;149506.31;;;14.15;100.00
48630;BME280;34426;52.180;4.462;2022-07-23T00:48:33;149496.28;;;14.11;100.00
48630;BME280;34426;52.180;4.462;2022-07-23T00:51:00;149485.09;;;14.06;100.00
48630;BME280;34426;52.180;4.462;2022-07-23T00:53:28;149483.78;;;14.05;100.00
48630;BME280;34426;52.180;4.462;2022-07-23T00:55:56;149468.81;;;13.99;100.00
48630;BME280;34426;52.180;4.462;2022-07-23T00:58:24;149473.81;;;14.01;100.00
48630;BME280;34426;52.180;4.462;2022-07-23T01:00:52;149472.56;;;14.01;100.00
48630;BME280;34426;52.180;4.462;2022-07-23T01:03:19;149476.34;;;14.02;100.00
48630;BME280;34426;52.180;4.462;2022-07-23T01:05:47;149465.06;;;13.98;100.00
48630;BME280;34426;52.180;4.462;2022-07-23T01:08:14;149470.06;;;14.00;100.00
48630;BME280;34426;52.180;4.462;2022-07-23T01:10:41;149462.53;;;13.97;100.00
48630;BME280;34426;52.180;4.462;2022-07-23T01:13:11;149467.59;;;13.99;100.00
48630;BME280;34426;52.180;4.462;2022-07-23T01:15:39;149461.31;;;13.96;100.00
48630;BME280;34426;52.180;4.462;2022-07-23T01:18:07;149455.09;;;13.94;100.00
48630;BME280;34426;52.180;4.462;2022-07-23T01:20:35;149453.81;;;13.93;100.00
48630;BME280;34426;52.180;4.462;2022-07-23T01:23:04;149448.81;;;13.91;100.00
48630;BME280;34426;52.180;4.462;2022-07-23T01:25:32;149438.84;;;13.87;100.00
48630;BME280;34426;52.180;4.462;2022-07-23T01:27:59;149428.81;;;13.83;100.00
48630;BME280;34426;52.180;4.462;2022-07-23T01:30:27;149431.31;;;13.84;100.00
48630;BME280;34426;52.180;4.462;2022-07-23T01:32:54;149433.84;;;13.85;100.00
48630;BME280;34426;52.180;4.462;2022-07-23T01:35:22;149431.31;;;13.84;100.00
48630;BME280;34426;52.180;4.462;2022-07-23T01:37:48;149422.56;;;13.80;100.00
48630;BME280;34426;52.180;4.462;2022-07-23T01:40:18;149410.09;;;13.75;100.00
48630;BME280;34426;52.180;4.462;2022-07-23T01:42:45;149406.31;;;13.74;100.00
48630;BME280;34426;52.180;4.462;2022-07-23T01:45:12;149396.34;;;13.69;100.00
48630;BME280;34426;52.180;4.462;2022-07-23T01:47:39;149385.09;;;13.65;100.00
48630;BME280;34426;52.180;4.462;2022-07-23T01:50:07;149380.09;;;13.63;100.00
48630;BME280;34426;52.180;4.462;2022-07-23T01:52:35;149365.06;;;13.57;100.00
48630;BME280;34426;52.180;4.462;2022-07-23T01:55:03;149357.56;;;13.53;100.00
48630;BME280;34426;52.180;4.462;2022-07-23T01:57:32;149353.81;;;13.52;100.00
48630;BME280;34426;52.180;4.462;2022-07-23T02:00:00;149342.59;;;13.47;100.00
48630;BME280;34426;52.180;4.462;2022-07-23T02:02:27;149325.13;;;13.40;100.00
48630;BME280;34426;52.180;4.462;2022-07-23T02:04:54;149316.38;;;13.37;100.00
48630;BME280;34426;52.180;4.462;2022-07-23T02:07:22;149316.38;;;13.37;100.00
48630;BME280;34426;52.180;4.462;2022-07-23T02:09:50;149320.09;;;13.38;100.00
48630;BME280;34426;52.180;4.462;2022-07-23T02:12:17;149318.84;;;13.38;100.00
48630;BME280;34426;52.180;4.462;2022-07-23T02:14:47;149323.84;;;13.40;100.00
48630;BME280;34426;52.180;4.462;2022-07-23T02:17:15;149312.63;;;13.35;100.00
48630;BME280;34426;52.180;4.462;2022-07-23T02:19:43;149307.59;;;13.33;100.00
48630;BME280;34426;52.180;4.462;2022-07-23T02:22:11;149302.56;;;13.31;100.00
48630;BME280;34426;52.180;4.462;2022-07-23T02:24:39;149303.88;;;13.31;100.00
48630;BME280;34426;52.180;4.462;2022-07-23T02:27:05;149305.13;;;13.32;100.00
48630;BME280;34426;52.180;4.462;2022-07-23T02:29:33;149308.88;;;13.33;100.00
48630;BME280;34426;52.180;4.462;2022-07-23T02:32:03;149308.88;;;13.33;100.00
48630;BME280;34426;52.180;4.462;2022-07-23T02:34:30;149306.34;;;13.32;100.00
48630;BME280;34426;52.180;4.462;2022-07-23T02:36:58;149306.34;;;13.32;100.00
48630;BME280;34426;52.180;4.462;2022-07-23T02:39:25;149306.34;;;13.32;100.00
48630;BME280;34426;52.180;4.462;2022-07-23T02:41:52;149301.31;;;13.30;100.00
48630;BME280;34426;52.180;4.462;2022-07-23T02:44:20;149303.88;;;13.31;100.00
48630;BME280;34426;52.180;4.462;2022-07-23T02:46:48;149330.09;;;13.42;100.00
48630;BME280;34426;52.180;4.462;2022-07-23T02:49:17;149333.88;;;13.44;100.00
48630;BME280;34426;52.180;4.462;2022-07-23T02:51:44;149361.31;;;13.55;100.00
48630;BME280;34426;52.180;4.462;2022-07-23T02:54:12;149371.34;;;13.59;100.00
48630;BME280;34426;52.180;4.462;2022-07-23T02:56:39;149381.34;;;13.63;100.00
48630;BME280;34426;52.180;4.462;2022-07-23T02:59:06;149392.59;;;13.68;100.00
48630;BME280;34426;52.180;4.462;2022-07-23T03:01:34;149405.09;;;13.73;100.00
48630;BME280;34426;52.180;4.462;2022-07-23T03:04:02;149407.56;;;13.74;100.00
48630;BME280;34426;52.180;4.462;2022-07-23T03:06:31;149401.34;;;13.71;100.00
48630;BME280;34426;52.180;4.462;2022-07-23T03:08:58;149406.31;;;13.74;100.00
48630;BME280;34426;52.180;4.462;2022-07-23T03:11:26;149418.81;;;13.79;100.00
48630;BME280;34426;52.180;4.462;2022-07-23T03:13:53;149413.84;;;13.77;100.00
48630;BME280;34426;52.180;4.462;2022-07-23T03:16:21;149398.81;;;13.70;100.00
48630;BME280;34426;52.180;4.462;2022-07-23T03:18:48;149388.84;;;13.66;100.00
48630;BME280;34426;52.180;4.462;2022-07-23T03:21:16;149381.34;;;13.63;100.00
48630;BME280;34426;52.180;4.462;2022-07-23T03:23:45;149383.84;;;13.64;100.00
48630;BME280;34426;52.180;4.462;2022-07-23T03:26:12;149390.06;;;13.67;100.00
48630;BME280;34426;52.180;4.462;2022-07-23T03:28:40;149396.34;;;13.69;100.00
48630;BME280;34426;52.180;4.462;2022-07-23T03:31:07;149382.56;;;13.64;100.00
48630;BME280;34426;52.180;4.462;2022-07-23T03:33:35;149386.31;;;13.65;100.00
48630;BME280;34426;52.180;4.462;2022-07-23T03:36:02;149392.59;;;13.68;100.00
48630;BME280;34426;52.180;4.462;2022-07-23T03:38:30;149388.84;;;13.66;100.00
48630;BME280;34426;52.180;4.462;2022-07-23T03:40:59;149371.34;;;13.59;100.00
48630;BME280;34426;52.180;4.462;2022-07-23T03:43:27;149341.31;;;13.47;100.00
48630;BME280;34426;52.180;4.462;2022-07-23T03:45:54;149335.09;;;13.44;100.00
48630;BME280;34426;52.180;4.462;2022-07-23T03:48:22;149336.34;;;13.45;100.00
48630;BME280;34426;52.180;4.462;2022-07-23T03:50:50;149345.06;;;13.48;100.00
48630;BME280;34426;52.180;4.462;2022-07-23T03:53:18;149375.09;;;13.61;100.00
48630;BME280;34426;52.180;4.462;2022-07-23T03:55:45;149395.06;;;13.69;100.00
48630;BME280;34426;52.180;4.462;2022-07-23T03:58:14;149400.06;;;13.71;100.00
48630;BME280;34426;52.180;4.462;2022-07-23T04:00:42;149413.84;;;13.77;100.00
48630;BME280;34426;52.180;4.462;2022-07-23T04:03:09;149416.31;;;13.78;100.00
48630;BME280;34426;52.180;4.462;2022-07-23T04:05:37;149417.59;;;13.78;100.00
48630;BME280;34426;52.180;4.462;2022-07-23T04:08:04;149421.34;;;13.80;100.00
48630;BME280;34426;52.180;4.462;2022-07-23T04:10:32;149413.84;;;13.77;100.00
48630;BME280;34426;52.180;4.462;2022-07-23T04:12:59;149410.09;;;13.75;100.00
48630;BME280;34426;52.180;4.462;2022-07-23T04:15:29;149412.56;;;13.76;100.00
48630;BME280;34426;52.180;4.462;2022-07-23T04:17:56;149412.56;;;13.76;100.00
48630;BME280;34426;52.180;4.462;2022-07-23T04:20:24;149435.09;;;13.85;100.00
48630;BME280;34426;52.180;4.462;2022-07-23T04:22:51;149442.59;;;13.88;100.00
48630;BME280;34426;52.180;4.462;2022-07-23T04:25:18;149450.03;;;13.92;100.00
48630;BME280;34426;52.180;4.462;2022-07-23T04:27:46;149448.81;;;13.91;100.00
48630;BME280;34426;52.180;4.462;2022-07-23T04:30:13;149443.81;;;13.89;100.00
48630;BME280;34426;52.180;4.462;2022-07-23T04:32:43;149445.06;;;13.89;100.00
48630;BME280;34426;52.180;4.462;2022-07-23T04:35:10;149442.59;;;13.88;100.00
48630;BME280;34426;52.180;4.462;2022-07-23T04:37:38;149438.84;;;13.87;100.00
48630;BME280;34426;52.180;4.462;2022-07-23T04:40:06;149421.34;;;13.80;100.00
48630;BME280;34426;52.180;4.462;2022-07-23T04:42:34;149421.34;;;13.80;100.00
48630;BME280;34426;52.180;4.462;2022-07-23T04:45:01;149430.09;;;13.83;100.00
48630;BME280;34426;52.180;4.462;2022-07-23T04:47:28;149440.06;;;13.87;100.00
48630;BME280;34426;52.180;4.462;2022-07-23T04:49:58;149432.56;;;13.84;100.00
48630;BME280;34426;52.180;4.462;2022-07-23T04:52:26;149426.34;;;13.82;100.00
48630;BME280;34426;52.180;4.462;2022-07-23T04:54:53;149431.31;;;13.84;100.00
48630;BME280;34426;52.180;4.462;2022-07-23T04:57:21;149426.34;;;13.82;100.00
48630;BME280;34426;52.180;4.462;2022-07-23T04:59:48;149433.84;;;13.85;100.00
48630;BME280;34426;52.180;4.462;2022-07-23T05:02:15;149448.81;;;13.91;100.00
48630;BME280;34426;52.180;4.462;2022-07-23T05:04:43;149452.56;;;13.93;100.00
48630;BME280;34426;52.180;4.462;2022-07-23T05:07:12;149441.31;;;13.88;100.00
48630;BME280;34426;52.180;4.462;2022-07-23T05:09:39;149453.81;;;13.93;100.00
48630;BME280;34426;52.180;4.462;2022-07-23T05:12:07;149461.31;;;13.96;100.00
48630;BME280;34426;52.180;4.462;2022-07-23T05:14:35;149466.31;;;13.98;100.00
48630;BME280;34426;52.180;4.462;2022-07-23T05:17:02;149451.34;;;13.92;100.00
48630;BME280;34426;52.180;4.462;2022-07-23T05:19:29;149460.06;;;13.96;100.00
48630;BME280;34426;52.180;4.462;2022-07-23T05:21:57;149468.81;;;13.99;100.00
48630;BME280;34426;52.180;4.462;2022-07-23T05:24:26;149475.06;;;14.02;100.00
48630;BME280;34426;52.180;4.462;2022-07-23T05:26:53;149470.06;;;14.00;100.00
48630;BME280;34426;52.180;4.462;2022-07-23T05:29:20;149481.31;;;14.04;100.00
48630;BME280;34426;52.180;4.462;2022-07-23T05:31:48;149497.59;;;14.11;100.00
48630;BME280;34426;52.180;4.462;2022-07-23T05:34:15;149502.56;;;14.13;100.00
48630;BME280;34426;52.180;4.462;2022-07-23T05:36:42;149506.31;;;14.15;100.00
48630;BME280;34426;52.180;4.462;2022-07-23T05:39:10;149513.84;;;14.18;100.00
48630;BME280;34426;52.180;4.462;2022-07-23T05:41:39;149526.34;;;14.23;100.00
48630;BME280;34426;52.180;4.462;2022-07-23T05:44:06;149543.84;;;14.30;100.00
48630;BME280;34426;52.180;4.462;2022-07-23T05:46:34;149558.81;;;14.36;100.00
48630;BME280;34426;52.180;4.462;2022-07-23T05:49:01;149573.84;;;14.42;100.00
48630;BME280;34426;52.180;4.462;2022-07-23T05:51:29;149592.56;;;14.50;100.00
48630;BME280;34426;52.180;4.462;2022-07-23T05:53:56;149595.09;;;14.51;100.00
48630;BME280;34426;52.180;4.462;2022-07-23T05:56:23;149618.91;;;14.61;100.00
48630;BME280;34426;52.180;4.462;2022-07-23T05:58:56;149622.63;;;14.62;100.00
48630;BME280;34426;52.180;4.462;2022-07-23T06:01:23;149641.41;;;14.70;100.00
48630;BME280;34426;52.180;4.462;2022-07-23T06:03:50;149657.66;;;14.77;100.00
48630;BME280;34426;52.180;4.462;2022-07-23T06:06:17;149676.41;;;14.84;100.00
48630;BME280;34426;52.180;4.462;2022-07-23T06:08:44;149703.94;;;14.96;100.00
48630;BME280;34426;52.180;4.462;2022-07-23T06:11:12;149720.19;;;15.02;100.00
48630;BME280;34426;52.180;4.462;2022-07-23T06:13:40;149741.47;;;15.11;100.00
48630;BME280;34426;52.180;4.462;2022-07-23T06:16:09;149753.97;;;15.16;100.00
48630;BME280;34426;52.180;4.462;2022-07-23T06:18:36;149774.00;;;15.25;100.00
48630;BME280;34426;52.180;4.462;2022-07-23T06:21:04;149790.22;;;15.31;100.00
48630;BME280;34426;52.180;4.462;2022-07-23T06:23:31;149824.00;;;15.45;100.00
48630;BME280;34426;52.180;4.462;2022-07-23T06:25:58;149859.06;;;15.59;100.00
48630;BME280;34426;52.180;4.462;2022-07-23T06:28:26;149894.06;;;15.74;100.00
48630;BME280;34426;52.180;4.462;2022-07-23T06:30:53;149906.63;;;15.79;100.00
48630;BME280;34426;52.180;4.462;2022-07-23T06:33:22;149924.16;;;15.86;100.00
48630;BME280;34426;52.180;4.462;2022-07-23T06:35:50;149921.69;;;15.85;100.00
48630;BME280;34426;52.180;4.462;2022-07-23T06:38:17;149925.44;;;15.87;100.00
48630;BME280;34426;52.180;4.462;2022-07-23T06:40:44;149922.91;;;15.86;100.00
48630;BME280;34426;52.180;4.462;2022-07-23T06:43:12;149936.66;;;15.91;100.00
48630;BME280;34426;52.180;4.462;2022-07-23T06:45:40;149940.44;;;15.93;100.00
48630;BME280;34426;52.180;4.462;2022-07-23T06:48:08;149949.19;;;15.96;100.00
48630;BME280;34426;52.180;4.462;2022-07-23T06:50:38;149962.94;;;16.02;100.00
48630;BME280;34426;52.180;4.462;2022-07-23T06:53:05;149972.97;;;16.06;100.00
48630;BME280;34426;52.180;4.462;2022-07-23T06:55:32;149994.25;;;16.15;98.68
48630;BME280;34426;52.180;4.462;2022-07-23T06:58:00;150023.03;;;16.27;98.79
48630;BME280;34426;52.180;4.462;2022-07-23T07:00:27;150026.81;;;16.28;97.84
48630;BME280;34426;52.180;4.462;2022-07-23T07:02:55;150030.56;;;16.30;97.84
48630;BME280;34426;52.180;4.462;2022-07-23T07:05:22;150050.56;;;16.38;100.00
48630;BME280;34426;52.180;4.462;2022-07-23T07:07:52;150051.84;;;16.39;99.21
48630;BME280;34426;52.180;4.462;2022-07-23T07:10:19;150073.13;;;16.47;98.46
48630;BME280;34426;52.180;4.462;2022-07-23T07:12:46;150084.34;;;16.52;97.70
48630;BME280;34426;52.180;4.462;2022-07-23T07:15:13;150120.69;;;16.67;95.56
48630;BME280;34426;52.180;4.462;2022-07-23T07:17:41;150130.69;;;16.71;96.21
48630;BME280;34426;52.180;4.462;2022-07-23T07:20:09;150162.06;;;16.84;95.86
48630;BME280;34426;52.180;4.462;2022-07-23T07:22:37;150153.25;;;16.80;95.30
48630;BME280;34426;52.180;4.462;2022-07-23T07:25:08;150145.72;;;16.77;96.49
48630;BME280;34426;52.180;4.462;2022-07-23T07:27:35;150167.06;;;16.86;96.88
48630;BME280;34426;52.180;4.462;2022-07-23T07:30:04;150167.06;;;16.86;96.52
48630;BME280;34426;52.180;4.462;2022-07-23T07:32:31;150165.81;;;16.85;95.89
48630;BME280;34426;52.180;4.462;2022-07-23T07:34:59;150189.56;;;16.95;96.25
48630;BME280;34426;52.180;4.462;2022-07-23T07:37:26;150207.16;;;17.02;96.02
48630;BME280;34426;52.180;4.462;2022-07-23T07:39:54;150192.09;;;16.96;94.92
48630;BME280;34426;52.180;4.462;2022-07-23T07:42:24;150220.91;;;17.08;96.06
48630;BME280;34426;52.180;4.462;2022-07-23T07:44:51;150240.97;;;17.16;94.68
48630;BME280;34426;52.180;4.462;2022-07-23T07:47:19;150250.97;;;17.20;92.64
48630;BME280;34426;52.180;4.462;2022-07-23T07:49:46;150312.34;;;17.45;93.64
48630;BME280;34426;52.180;4.462;2022-07-23T07:52:13;150318.59;;;17.48;91.58
48630;BME280;34426;52.180;4.462;2022-07-23T07:54:41;150326.13;;;17.51;92.46
48630;BME280;34426;52.180;4.462;2022-07-23T07:57:08;150322.38;;;17.50;91.93
48630;BME280;34426;52.180;4.462;2022-07-23T07:59:38;150341.13;;;17.57;88.62
48630;BME280;34426;52.180;4.462;2022-07-23T08:02:06;150341.13;;;17.57;90.99
48630;BME280;34426;52.180;4.462;2022-07-23T08:04:33;150346.19;;;17.59;91.94
48630;BME280;34426;52.180;4.462;2022-07-23T08:07:00;150341.13;;;17.57;90.89
48630;BME280;34426;52.180;4.462;2022-07-23T08:09:28;150347.41;;;17.60;91.38
48630;BME280;34426;52.180;4.462;2022-07-23T08:11:55;150349.94;;;17.61;91.00
48630;BME280;34426;52.180;4.462;2022-07-23T08:14:22;150368.72;;;17.69;90.92
48630;BME280;34426;52.180;4.462;2022-07-23T08:16:52;150396.28;;;17.80;89.63
48630;BME280;34426;52.180;4.462;2022-07-23T08:19:19;150410.06;;;17.86;87.17
48630;BME280;34426;52.180;4.462;2022-07-23T08:21:46;150426.41;;;17.92;85.28
48630;BME280;34426;52.180;4.462;2022-07-23T08:24:14;150442.69;;;17.99;87.67
48630;BME280;34426;52.180;4.462;2022-07-23T08:26:41;150457.72;;;18.05;86.51
48630;BME280;34426;52.180;4.462;2022-07-23T08:29:09;150475.25;;;18.12;85.36
48630;BME280;34426;52.180;4.462;2022-07-23T08:31:36;150474.00;;;18.12;83.15
48630;BME280;34426;52.180;4.462;2022-07-23T08:34:05;150469.00;;;18.10;83.91
48630;BME280;34426;52.180;4.462;2022-07-23T08:36:33;150489.06;;;18.18;83.96
48630;BME280;34426;52.180;4.462;2022-07-23T08:39:00;150516.63;;;18.29;86.42
48630;BME280;34426;52.180;4.462;2022-07-23T08:41:28;150521.63;;;18.31;84.96
48630;BME280;34426;52.180;4.462;2022-07-23T08:43:55;150544.22;;;18.41;86.94
48630;BME280;34426;52.180;4.462;2022-07-23T08:46:23;150578.03;;;18.54;86.47
48630;BME280;34426;52.180;4.462;2022-07-23T08:48:50;150600.59;;;18.64;84.96
48630;BME280;34426;52.180;4.462;2022-07-23T08:51:21;150615.66;;;18.70;84.54
48630;BME280;34426;52.180;4.462;2022-07-23T08:53:52;150631.97;;;18.76;81.66
48630;BME280;34426;52.180;4.462;2022-07-23T08:56:20;150647.03;;;18.83;79.47
48630;BME280;34426;52.180;4.462;2022-07-23T08:58:47;150663.31;;;18.89;79.74
48630;BME280;34426;52.180;4.462;2022-07-23T09:01:15;150667.09;;;18.91;83.47
48630;BME280;34426;52.180;4.462;2022-07-23T09:03:43;150657.09;;;18.87;82.92
48630;BME280;34426;52.180;4.462;2022-07-23T09:06:10;150678.38;;;18.95;79.65
48630;BME280;34426;52.180;4.462;2022-07-23T09:08:40;150690.94;;;19.01;84.41
48630;BME280;34426;52.180;4.462;2022-07-23T09:11:08;150690.94;;;19.01;82.05
48630;BME280;34426;52.180;4.462;2022-07-23T09:13:37;150722.25;;;19.13;84.60
48630;BME280;34426;52.180;4.462;2022-07-23T09:16:07;150709.72;;;19.08;82.18
48630;BME280;34426;52.180;4.462;2022-07-23T09:18:37;150733.56;;;19.18;81.02
48630;BME280;34426;52.180;4.462;2022-07-23T09:21:13;150766.13;;;19.31;80.01
48630;BME280;34426;52.180;4.462;2022-07-23T09:23:45;150799.97;;;19.45;79.86
48630;BME280;34426;52.180;4.462;2022-07-23T09:26:35;150817.56;;;19.52;79.99
48630;BME280;34426;52.180;4.462;2022-07-23T09:29:11;150787.44;;;19.40;78.11
48630;BME280;34426;52.180;4.462;2022-07-23T09:31:47;150796.25;;;19.44;81.29
48630;BME280;34426;52.180;4.462;2022-07-23T09:34:18;150821.34;;;19.54;79.66
48630;BME280;34426;52.180;4.462;2022-07-23T09:36:46;150870.28;;;19.74;76.10
48630;BME280;34426;52.180;4.462;2022-07-23T09:39:16;150907.91;;;19.89;72.94
48630;BME280;34426;52.180;4.462;2022-07-23T09:41:49;150939.31;;;20.02;74.09
48630;BME280;34426;52.180;4.462;2022-07-23T09:44:17;150941.78;;;20.03;71.88
48630;BME280;34426;52.180;4.462;2022-07-23T09:46:46;150955.56;;;20.09;75.54
48630;BME280;34426;52.180;4.462;2022-07-23T09:49:17;150963.09;;;20.12;69.83
48630;BME280;34426;52.180;4.462;2022-07-23T09:51:49;150993.22;;;20.24;69.88
48630;BME280;34426;52.180;4.462;2022-07-23T09:54:27;150999.50;;;20.27;69.15
48630;BME280;34426;52.180;4.462;2022-07-23T09:56:56;151010.81;;;20.32;68.38
48630;BME280;34426;52.180;4.462;2022-07-23T09:59:25;151019.59;;;20.35;69.01
48630;BME280;34426;52.180;4.462;2022-07-23T10:01:53;151032.16;;;20.40;67.86
48630;BME280;34426;52.180;4.462;2022-07-23T10:04:22;151044.69;;;20.45;66.04
48630;BME280;34426;52.180;4.462;2022-07-23T10:06:53;151024.59;;;20.37;65.98
48630;BME280;34426;52.180;4.462;2022-07-23T10:09:27;151054.72;;;20.50;68.56
48630;BME280;34426;52.180;4.462;2022-07-23T10:11:55;151069.78;;;20.56;65.76
48630;BME280;34426;52.180;4.462;2022-07-23T10:14:21;151042.16;;;20.44;66.42
48630;BME280;34426;52.180;4.462;2022-07-23T10:16:48;151024.59;;;20.37;66.76
48630;BME280;34426;52.180;4.462;2022-07-23T10:19:17;151044.69;;;20.45;67.81
48630;BME280;34426;52.180;4.462;2022-07-23T10:21:47;151062.25;;;20.53;66.68
48630;BME280;34426;52.180;4.462;2022-07-23T10:24:28;151084.88;;;20.62;66.97
48630;BME280;34426;52.180;4.462;2022-07-23T10:27:09;151117.53;;;20.75;66.85
48630;BME280;34426;52.180;4.462;2022-07-23T10:29:47;151140.09;;;20.85;66.84
48630;BME280;34426;52.180;4.462;2022-07-23T10:32:26;151201.63;;;21.10;68.31
48630;BME280;34426;52.180;4.462;2022-07-23T10:35:07;151253.06;;;21.31;67.89
48630;BME280;34426;52.180;4.462;2022-07-23T10:37:40;151241.75;;;21.26;63.90
48630;BME280;34426;52.180;4.462;2022-07-23T10:40:17;151269.41;;;21.37;69.77
48630;BME280;34426;52.180;4.462;2022-07-23T10:42:45;151295.81;;;21.48;64.29
48630;BME280;34426;52.180;4.462;2022-07-23T10:45:27;151328.47;;;21.62;62.38
48630;BME280;34426;52.180;4.462;2022-07-23T10:47:55;151356.06;;;21.73;63.29
48630;BME280;34426;52.180;4.462;2022-07-23T10:50:37;151356.06;;;21.73;60.77
48630;BME280;34426;52.180;4.462;2022-07-23T10:53:15;151371.16;;;21.79;61.35
48630;BME280;34426;52.180;4.462;2022-07-23T10:55:46;151383.72;;;21.84;60.58
48630;BME280;34426;52.180;4.462;2022-07-23T10:58:20;151396.28;;;21.89;59.85
48630;BME280;34426;52.180;4.462;2022-07-23T11:00:48;151400.03;;;21.91;59.74
48630;BME280;34426;52.180;4.462;2022-07-23T11:03:33;151436.44;;;22.06;59.97
48630;BME280;34426;52.180;4.462;2022-07-23T11:06:04;151460.31;;;22.16;63.08
48630;BME280;34426;52.180;4.462;2022-07-23T11:08:32;151499.28;;;22.31;60.68
48630;BME280;34426;52.180;4.462;2022-07-23T11:11:13;151534.50;;;22.46;58.49
48630;BME280;34426;52.180;4.462;2022-07-23T11:13:48;151568.41;;;22.60;59.21
48630;BME280;34426;52.180;4.462;2022-07-23T11:16:23;151530.72;;;22.44;62.84
48630;BME280;34426;52.180;4.462;2022-07-23T11:19:09;151549.53;;;22.52;62.29
48630;BME280;34426;52.180;4.462;2022-07-23T11:21:47;151547.06;;;22.51;62.10
48630;BME280;34426;52.180;4.462;2022-07-23T11:24:18;151547.06;;;22.51;62.69
48630;BME280;34426;52.180;4.462;2022-07-23T11:29:41;151629.94;;;22.85;62.04
48630;BME280;34426;52.180;4.462;2022-07-23T11:32:20;151702.91;;;23.15;68.07
48630;BME280;34426;52.180;4.462;2022-07-23T11:34:49;151715.50;;;23.20;59.61
48630;BME280;34426;52.180;4.462;2022-07-23T11:37:29;151731.78;;;23.27;61.47
48630;BME280;34426;52.180;4.462;2022-07-23T11:39:58;151750.66;;;23.34;59.06
48630;BME280;34426;52.180;4.462;2022-07-23T11:42:28;151706.69;;;23.16;59.13
48630;BME280;34426;52.180;4.462;2022-07-23T11:44:55;151730.53;;;23.26;60.04
48630;BME280;34426;52.180;4.462;2022-07-23T11:47:24;151787.13;;;23.49;62.52
48630;BME280;34426;52.180;4.462;2022-07-23T11:49:55;151745.66;;;23.32;59.24
48630;BME280;34426;52.180;4.462;2022-07-23T11:52:24;151730.53;;;23.26;59.84
48630;BME280;34426;52.180;4.462;2022-07-23T11:54:53;151777.03;;;23.45;64.21
48630;BME280;34426;52.180;4.462;2022-07-23T11:57:25;151800.94;;;23.55;59.58
48630;BME280;34426;52.180;4.462;2022-07-23T11:59:56;151821.06;;;23.63;59.25
48630;BME280;34426;52.180;4.462;2022-07-23T12:02:23;151861.28;;;23.79;58.99
48630;BME280;34426;52.180;4.462;2022-07-23T12:04:50;151891.47;;;23.92;64.94
48630;BME280;34426;52.180;4.462;2022-07-23T12:07:27;151948.09;;;24.15;58.70
48630;BME280;34426;52.180;4.462;2022-07-23T12:09:54;151919.16;;;24.03;58.22
48630;BME280;34426;52.180;4.462;2022-07-23T12:12:22;151897.78;;;23.94;63.41
48630;BME280;34426;52.180;4.462;2022-07-23T12:14:51;151922.94;;;24.05;57.36
48630;BME280;34426;52.180;4.462;2022-07-23T12:17:21;151886.47;;;23.90;57.12
48630;BME280;34426;52.180;4.462;2022-07-23T12:19:54;151838.66;;;23.70;57.80
48630;BME280;34426;52.180;4.462;2022-07-23T12:22:23;151823.56;;;23.64;58.29
48630;BME280;34426;52.180;4.462;2022-07-23T12:24:55;151843.69;;;23.72;59.85
48630;BME280;34426;52.180;4.462;2022-07-23T12:27:23;151901.56;;;23.96;59.82
48630;BME280;34426;52.180;4.462;2022-07-23T12:29:51;151948.09;;;24.15;58.59
48630;BME280;34426;52.180;4.462;2022-07-23T12:32:22;151995.84;;;24.34;57.35
48630;BME280;34426;52.180;4.462;2022-07-23T12:34:50;151988.31;;;24.31;58.93
48630;BME280;34426;52.180;4.462;2022-07-23T12:37:28;152029.81;;;24.48;61.17
48630;BME280;34426;52.180;4.462;2022-07-23T12:39:56;152100.31;;;24.77;55.33
48630;BME280;34426;52.180;4.462;2022-07-23T12:42:24;152102.78;;;24.78;55.23
48630;BME280;34426;52.180;4.462;2022-07-23T12:45:06;152101.56;;;24.78;54.51
48630;BME280;34426;52.180;4.462;2022-07-23T12:47:56;152101.56;;;24.78;54.58
48630;BME280;34426;52.180;4.462;2022-07-23T12:50:38;152143.06;;;24.95;54.41
48630;BME280;34426;52.180;4.462;2022-07-23T12:53:10;152224.88;;;25.28;56.74
48630;BME280;34426;52.180;4.462;2022-07-23T12:55:37;152314.19;;;25.64;52.68
48630;BME280;34426;52.180;4.462;2022-07-23T12:58:07;152335.59;;;25.73;51.54